Bookmark and Share
Track history (hours):
 

Million Trader II

Last reported at 2014-Apr-14 11:33 UTC. Time now 2014-Apr-19 12:08 UTC.
Position N 36°06' E 025°32'.

Length 225 m; draft 14.1 m.

Type: Ship. MMSI: 548687000.

NotesDate/timePositionNaut miles runAvg speedWind from/ knotsBaromVisibWave heightAir tempDewpointWater temp
2014-Apr-14 11:33N 36°06' E 025°32'1010.5
2014-Apr-14 10:34N 36°13' E 025°22'1110.8
2014-Apr-14 09:33N 36°20' E 025°12'1110.9
2014-Apr-14 08:33N 36°26' E 025°01'1110.5
2014-Apr-14 07:32N 36°32' E 024°50'9 9.5
2014-Apr-14 06:33N 36°41' E 024°45'1010.1
2014-Apr-14 05:33N 36°50' E 024°40'8211.7
2014-Apr-13 22:32N 37°52' E 023°32'0 0.1
2014-Apr-13 21:32N 37°52' E 023°32'0 0.0
2014-Apr-13 20:32N 37°52' E 023°32'0 0.0
2014-Apr-13 19:32N 37°52' E 023°32'1 0.8
2014-Apr-13 18:34N 37°52' E 023°33'4 3.5
2014-Apr-13 17:33N 37°51' E 023°38'7 6.5
2014-Apr-13 16:34N 37°46' E 023°42'32 9.5
2014-Apr-13 13:12N 37°29' E 024°17'2110.5
2014-Apr-13 11:12N 37°46' E 024°32'14110.7
2014-Apr-12 22:04N 39°53' E 025°51'810.7
2014-Apr-12 21:22N 39°59' E 025°57'  
2014-Apr-09 21:33N 46°24' E 030°55'5 4.6
2014-Apr-09 20:33N 46°29' E 030°55'4 4.1
2014-Apr-09 19:33N 46°33' E 030°58'  
2014-Apr-07 10:18N 46°25' E 030°57'911.4
2014-Apr-07 09:33N 46°17' E 030°57'1211.8
2014-Apr-07 08:32N 46°07' E 031°09'1111.1
2014-Apr-07 07:33N 45°57' E 031°06'1411.6
2014-Apr-07 06:21N 45°43' E 030°60'1111.6
2014-Apr-07 05:23N 45°33' E 030°54'224 6.6
2014-Apr-05 19:33N 41°57' E 029°27'1212.1
2014-Apr-05 18:33N 41°46' E 029°23'1212.3
2014-Apr-05 17:33N 41°34' E 029°18'1212.3
2014-Apr-05 16:33N 41°22' E 029°14'172 6.5
2014-Apr-04 14:10N 39°56' E 025°58'6 7.5
2014-Apr-04 13:22N 39°51' E 025°52'6 8.0
2014-Apr-04 12:33N 39°46' E 025°48'  

Dump ship's entire track history

sailing weather and tide predictions

Million Trader II — DYAI — position and weather